sensor_id;sensor_type;location;lat;lon;timestamp;pressure;altitude;pressure_sealevel;temperature;humidity
55914;BME280;58179;48.776;9.124;2023-12-20T00:02:00;97378.53;;;3.78;100.00
55914;BME280;58179;48.776;9.124;2023-12-20T00:04:27;97375.13;;;3.78;100.00
55914;BME280;58179;48.776;9.124;2023-12-20T00:06:56;97372.09;;;3.81;100.00
55914;BME280;58179;48.776;9.124;2023-12-20T00:09:23;97360.03;;;3.80;100.00
55914;BME280;58179;48.776;9.124;2023-12-20T00:11:49;97373.88;;;3.87;100.00
55914;BME280;58179;48.776;9.124;2023-12-20T00:14:16;97368.66;;;3.87;100.00
55914;BME280;58179;48.776;9.124;2023-12-20T00:16:42;97368.03;;;3.85;100.00
55914;BME280;58179;48.776;9.124;2023-12-20T00:19:08;97355.59;;;3.80;100.00
55914;BME280;58179;48.776;9.124;2023-12-20T00:21:34;97367.06;;;3.79;100.00
55914;BME280;58179;48.776;9.124;2023-12-20T00:24:01;97347.34;;;3.77;100.00
55914;BME280;58179;48.776;9.124;2023-12-20T00:26:27;97345.97;;;3.74;100.00
55914;BME280;58179;48.776;9.124;2023-12-20T00:28:54;97352.41;;;3.72;100.00
55914;BME280;58179;48.776;9.124;2023-12-20T00:31:21;97355.41;;;3.69;100.00
55914;BME280;58179;48.776;9.124;2023-12-20T00:33:47;97346.19;;;3.66;100.00
55914;BME280;58179;48.776;9.124;2023-12-20T00:36:13;97348.41;;;3.63;100.00
55914;BME280;58179;48.776;9.124;2023-12-20T00:38:40;97352.03;;;3.62;100.00
55914;BME280;58179;48.776;9.124;2023-12-20T00:41:06;97345.63;;;3.58;100.00
55914;BME280;58179;48.776;9.124;2023-12-20T00:43:32;97356.50;;;3.55;100.00
55914;BME280;58179;48.776;9.124;2023-12-20T00:45:58;97350.88;;;3.51;100.00
55914;BME280;58179;48.776;9.124;2023-12-20T00:48:27;97351.88;;;3.50;100.00
55914;BME280;58179;48.776;9.124;2023-12-20T00:50:53;97346.25;;;3.46;100.00
55914;BME280;58179;48.776;9.124;2023-12-20T00:53:19;97348.28;;;3.44;100.00
55914;BME280;58179;48.776;9.124;2023-12-20T00:55:45;97341.44;;;3.43;100.00
55914;BME280;58179;48.776;9.124;2023-12-20T00:58:12;97338.84;;;3.43;100.00
55914;BME280;58179;48.776;9.124;2023-12-20T01:00:38;97346.88;;;3.42;100.00
55914;BME280;58179;48.776;9.124;2023-12-20T01:03:04;97343.25;;;3.43;100.00
55914;BME280;58179;48.776;9.124;2023-12-20T01:05:32;97342.44;;;3.42;100.00
55914;BME280;58179;48.776;9.124;2023-12-20T01:07:58;97354.53;;;3.43;100.00
55914;BME280;58179;48.776;9.124;2023-12-20T01:10:24;97355.53;;;3.42;100.00
55914;BME280;58179;48.776;9.124;2023-12-20T01:12:54;97343.66;;;3.40;100.00
55914;BME280;58179;48.776;9.124;2023-12-20T01:15:20;97345.88;;;3.43;100.00
55914;BME280;58179;48.776;9.124;2023-12-20T01:17:46;97352.91;;;3.42;100.00
55914;BME280;58179;48.776;9.124;2023-12-20T01:20:13;97349.50;;;3.42;100.00
55914;BME280;58179;48.776;9.124;2023-12-20T01:22:40;97354.72;;;3.42;100.00
55914;BME280;58179;48.776;9.124;2023-12-20T01:25:08;97348.50;;;3.43;100.00
55914;BME280;58179;48.776;9.124;2023-12-20T01:27:35;97352.91;;;3.42;100.00
55914;BME280;58179;48.776;9.124;2023-12-20T01:30:01;97354.72;;;3.42;100.00
55914;BME280;58179;48.776;9.124;2023-12-20T01:32:27;97359.97;;;3.42;100.00
55914;BME280;58179;48.776;9.124;2023-12-20T01:34:53;97358.16;;;3.42;100.00
55914;BME280;58179;48.776;9.124;2023-12-20T01:37:19;97362.56;;;3.42;100.00
55914;BME280;58179;48.776;9.124;2023-12-20T01:39:47;97364.19;;;3.43;100.00
55914;BME280;58179;48.776;9.124;2023-12-20T01:42:13;97358.16;;;3.42;100.00
55914;BME280;58179;48.776;9.124;2023-12-20T01:44:39;97359.75;;;3.43;100.00
55914;BME280;58179;48.776;9.124;2023-12-20T01:47:06;97364.19;;;3.43;100.00
55914;BME280;58179;48.776;9.124;2023-12-20T01:49:32;97365.81;;;3.44;100.00
55914;BME280;58179;48.776;9.124;2023-12-20T01:51:58;97370.03;;;3.45;100.00
55914;BME280;58179;48.776;9.124;2023-12-20T01:54:24;97364.78;;;3.45;100.00
55914;BME280;58179;48.776;9.124;2023-12-20T01:56:52;97352.72;;;3.44;100.00
55914;BME280;58179;48.776;9.124;2023-12-20T01:59:19;97355.34;;;3.44;100.00
55914;BME280;58179;48.776;9.124;2023-12-20T02:01:46;97353.28;;;3.46;100.00
55914;BME280;58179;48.776;9.124;2023-12-20T02:04:12;97357.75;;;3.45;100.00
55914;BME280;58179;48.776;9.124;2023-12-20T02:06:40;97357.75;;;3.45;100.00
55914;BME280;58179;48.776;9.124;2023-12-20T02:09:08;97351.72;;;3.45;100.00
55914;BME280;58179;48.776;9.124;2023-12-20T02:11:35;97356.13;;;3.44;100.00
55914;BME280;58179;48.776;9.124;2023-12-20T02:14:03;97347.28;;;3.45;100.00
55914;BME280;58179;48.776;9.124;2023-12-20T02:16:29;97350.69;;;3.46;100.00
55914;BME280;58179;48.776;9.124;2023-12-20T02:18:55;97350.69;;;3.46;100.00
55914;BME280;58179;48.776;9.124;2023-12-20T02:21:31;97360.38;;;3.45;100.00
55914;BME280;58179;48.776;9.124;2023-12-20T02:23:57;97350.91;;;3.44;100.00
55914;BME280;58179;48.776;9.124;2023-12-20T02:26:24;97352.53;;;3.45;100.00
55914;BME280;58179;48.776;9.124;2023-12-20T02:28:50;97352.72;;;3.44;100.00
55914;BME280;58179;48.776;9.124;2023-12-20T02:31:16;97355.34;;;3.44;100.00
55914;BME280;58179;48.776;9.124;2023-12-20T02:33:42;97357.16;;;3.43;100.00
55914;BME280;58179;48.776;9.124;2023-12-20T02:36:08;97354.31;;;3.45;100.00
55914;BME280;58179;48.776;9.124;2023-12-20T02:38:36;97355.13;;;3.45;100.00
55914;BME280;58179;48.776;9.124;2023-12-20T02:41:02;97357.75;;;3.45;100.00
55914;BME280;58179;48.776;9.124;2023-12-20T02:43:29;97353.53;;;3.44;100.00
55914;BME280;58179;48.776;9.124;2023-12-20T02:45:55;97364.78;;;3.45;100.00
55914;BME280;58179;48.776;9.124;2023-12-20T02:48:21;97364.19;;;3.43;100.00
55914;BME280;58179;48.776;9.124;2023-12-20T02:50:48;97346.28;;;3.40;100.00
55914;BME280;58179;48.776;9.124;2023-12-20T02:53:15;97362.97;;;3.39;100.00
55914;BME280;58179;48.776;9.124;2023-12-20T02:55:42;97355.13;;;3.39;100.00
55914;BME280;58179;48.776;9.124;2023-12-20T02:58:08;97358.97;;;3.43;100.00
55914;BME280;58179;48.776;9.124;2023-12-20T03:00:34;97369.00;;;3.46;100.00
55914;BME280;58179;48.776;9.124;2023-12-20T03:03:00;97359.94;;;3.48;100.00
55914;BME280;58179;48.776;9.124;2023-12-20T03:05:27;97367.59;;;3.50;100.00
55914;BME280;58179;48.776;9.124;2023-12-20T03:07:53;97370.00;;;3.52;100.00
55914;BME280;58179;48.776;9.124;2023-12-20T03:10:19;97362.16;;;3.52;100.00
55914;BME280;58179;48.776;9.124;2023-12-20T03:12:47;97362.97;;;3.52;100.00
55914;BME280;58179;48.776;9.124;2023-12-20T03:15:13;97365.56;;;3.52;100.00
55914;BME280;58179;48.776;9.124;2023-12-20T03:17:39;97369.00;;;3.53;100.00
55914;BME280;58179;48.776;9.124;2023-12-20T03:20:06;97380.03;;;3.55;100.00
55914;BME280;58179;48.776;9.124;2023-12-20T03:22:33;97379.22;;;3.54;100.00
55914;BME280;58179;48.776;9.124;2023-12-20T03:24:59;97379.47;;;3.53;100.00
55914;BME280;58179;48.776;9.124;2023-12-20T03:27:25;97378.22;;;3.55;100.00
55914;BME280;58179;48.776;9.124;2023-12-20T03:29:53;97380.66;;;3.57;100.00
55914;BME280;58179;48.776;9.124;2023-12-20T03:32:19;97378.22;;;3.55;100.00
55914;BME280;58179;48.776;9.124;2023-12-20T03:34:45;97378.22;;;3.55;100.00
55914;BME280;58179;48.776;9.124;2023-12-20T03:37:11;97369.19;;;3.51;100.00
55914;BME280;58179;48.776;9.124;2023-12-20T03:39:37;97370.81;;;3.52;100.00
55914;BME280;58179;48.776;9.124;2023-12-20T03:42:04;97376.03;;;3.52;100.00
55914;BME280;58179;48.776;9.124;2023-12-20T03:44:30;97389.13;;;3.52;100.00
55914;BME280;58179;48.776;9.124;2023-12-20T03:46:58;97379.88;;;3.49;100.00
55914;BME280;58179;48.776;9.124;2023-12-20T03:49:24;97387.72;;;3.49;100.00
55914;BME280;58179;48.776;9.124;2023-12-20T03:51:50;97387.09;;;3.47;100.00
55914;BME280;58179;48.776;9.124;2023-12-20T03:54:16;97389.72;;;3.47;100.00
55914;BME280;58179;48.776;9.124;2023-12-20T03:56:42;97394.16;;;3.47;100.00
55914;BME280;58179;48.776;9.124;2023-12-20T03:59:08;97386.72;;;3.44;100.00
55914;BME280;58179;48.776;9.124;2023-12-20T04:01:34;97385.94;;;3.43;100.00
55914;BME280;58179;48.776;9.124;2023-12-20T04:04:02;97388.75;;;3.42;100.00
55914;BME280;58179;48.776;9.124;2023-12-20T04:06:28;97386.13;;;3.42;100.00
55914;BME280;58179;48.776;9.124;2023-12-20T04:08:54;97391.34;;;3.42;100.00
55914;BME280;58179;48.776;9.124;2023-12-20T04:11:20;97388.13;;;3.40;100.00
55914;BME280;58179;48.776;9.124;2023-12-20T04:13:47;97389.13;;;3.39;100.00
55914;BME280;58179;48.776;9.124;2023-12-20T04:16:13;97390.38;;;3.36;100.00
55914;BME280;58179;48.776;9.124;2023-12-20T04:18:39;97380.91;;;3.35;100.00
55914;BME280;58179;48.776;9.124;2023-12-20T04:21:06;97386.34;;;3.34;100.00
55914;BME280;58179;48.776;9.124;2023-12-20T04:23:33;97393.38;;;3.33;100.00
55914;BME280;58179;48.776;9.124;2023-12-20T04:25:59;97407.47;;;3.32;100.00
55914;BME280;58179;48.776;9.124;2023-12-20T04:28:25;97418.94;;;3.31;100.00
55914;BME280;58179;48.776;9.124;2023-12-20T04:30:51;97413.94;;;3.30;100.00
55914;BME280;58179;48.776;9.124;2023-12-20T04:33:17;97407.09;;;3.29;100.00
55914;BME280;58179;48.776;9.124;2023-12-20T04:35:44;97415.13;;;3.27;100.00
55914;BME280;58179;48.776;9.124;2023-12-20T04:38:13;97406.47;;;3.27;100.00
55914;BME280;58179;48.776;9.124;2023-12-20T04:40:39;97410.91;;;3.26;100.00
55914;BME280;58179;48.776;9.124;2023-12-20T04:43:06;97423.19;;;3.26;100.00
55914;BME280;58179;48.776;9.124;2023-12-20T04:45:33;97421.56;;;3.25;100.00
55914;BME280;58179;48.776;9.124;2023-12-20T04:47:59;97427.59;;;3.25;100.00
55914;BME280;58179;48.776;9.124;2023-12-20T04:50:25;97430.22;;;3.25;100.00
55914;BME280;58179;48.776;9.124;2023-12-20T04:52:52;97417.16;;;3.25;100.00
55914;BME280;58179;48.776;9.124;2023-12-20T04:55:19;97420.38;;;3.27;100.00
55914;BME280;58179;48.776;9.124;2023-12-20T04:57:46;97420.19;;;3.29;100.00
55914;BME280;58179;48.776;9.124;2023-12-20T05:00:12;97425.97;;;3.31;100.00
55914;BME280;58179;48.776;9.124;2023-12-20T05:02:41;97435.66;;;3.30;100.00
55914;BME280;58179;48.776;9.124;2023-12-20T05:05:08;97433.63;;;3.32;100.00
55914;BME280;58179;48.776;9.124;2023-12-20T05:07:34;97437.66;;;3.35;100.00
55914;BME280;58179;48.776;9.124;2023-12-20T05:10:00;97427.19;;;3.35;100.00
55914;BME280;58179;48.776;9.124;2023-12-20T05:12:28;97445.09;;;3.31;100.00
55914;BME280;58179;48.776;9.124;2023-12-20T05:14:54;97436.06;;;3.34;100.00
55914;BME280;58179;48.776;9.124;2023-12-20T05:17:20;97443.09;;;3.33;100.00
55914;BME280;58179;48.776;9.124;2023-12-20T05:19:46;97451.56;;;3.35;100.00
55914;BME280;58179;48.776;9.124;2023-12-20T05:22:12;97454.38;;;3.34;100.00
55914;BME280;58179;48.776;9.124;2023-12-20T05:24:39;97452.34;;;3.36;100.00
55914;BME280;58179;48.776;9.124;2023-12-20T05:27:05;97437.84;;;3.33;100.00
55914;BME280;58179;48.776;9.124;2023-12-20T05:29:33;97452.34;;;3.36;100.00
55914;BME280;58179;48.776;9.124;2023-12-20T05:31:59;97460.22;;;3.36;100.00
55914;BME280;58179;48.776;9.124;2023-12-20T05:34:25;97457.41;;;3.37;100.00
55914;BME280;58179;48.776;9.124;2023-12-20T05:36:51;97464.00;;;3.40;100.00
55914;BME280;58179;48.776;9.124;2023-12-20T05:39:17;97468.25;;;3.41;100.00
55914;BME280;58179;48.776;9.124;2023-12-20T05:41:43;97479.31;;;3.43;100.00
55914;BME280;58179;48.776;9.124;2023-12-20T05:44:09;97469.84;;;3.42;100.00
55914;BME280;58179;48.776;9.124;2023-12-20T05:46:37;97471.66;;;3.41;100.00
55914;BME280;58179;48.776;9.124;2023-12-20T05:49:03;97474.09;;;3.43;100.00
55914;BME280;58179;48.776;9.124;2023-12-20T05:51:30;97481.94;;;3.43;100.00
55914;BME280;58179;48.776;9.124;2023-12-20T05:53:56;97485.34;;;3.43;100.00
55914;BME280;58179;48.776;9.124;2023-12-20T05:56:22;97488.59;;;3.45;100.00
55914;BME280;58179;48.776;9.124;2023-12-20T05:58:49;97488.78;;;3.44;100.00
55914;BME280;58179;48.776;9.124;2023-12-20T06:01:15;97498.25;;;3.45;100.00
55914;BME280;58179;48.776;9.124;2023-12-20T06:03:44;97504.28;;;3.45;100.00
55914;BME280;58179;48.776;9.124;2023-12-20T06:06:12;97509.28;;;3.47;100.00
55914;BME280;58179;48.776;9.124;2023-12-20T06:08:38;97512.91;;;3.46;100.00
55914;BME280;58179;48.776;9.124;2023-12-20T06:11:05;97513.13;;;3.44;100.00
55914;BME280;58179;48.776;9.124;2023-12-20T06:13:31;97505.88;;;3.46;100.00
55914;BME280;58179;48.776;9.124;2023-12-20T06:15:57;97514.13;;;3.50;100.00
55914;BME280;58179;48.776;9.124;2023-12-20T06:18:23;97515.13;;;3.49;100.00
55914;BME280;58179;48.776;9.124;2023-12-20T06:20:51;97510.72;;;3.49;100.00
55914;BME280;58179;48.776;9.124;2023-12-20T06:23:18;97514.75;;;3.52;100.00
55914;BME280;58179;48.776;9.124;2023-12-20T06:25:44;97515.53;;;3.53;100.00
55914;BME280;58179;48.776;9.124;2023-12-20T06:28:10;97520.78;;;3.53;100.00
55914;BME280;58179;48.776;9.124;2023-12-20T06:30:40;97512.94;;;3.53;100.00
55914;BME280;58179;48.776;9.124;2023-12-20T06:33:06;97511.69;;;3.55;100.00
55914;BME280;58179;48.776;9.124;2023-12-20T06:35:33;97503.84;;;3.55;100.00
55914;BME280;58179;48.776;9.124;2023-12-20T06:38:00;97507.28;;;3.56;100.00
55914;BME280;58179;48.776;9.124;2023-12-20T06:40:27;97504.66;;;3.56;100.00
55914;BME280;58179;48.776;9.124;2023-12-20T06:42:53;97513.13;;;3.58;100.00
55914;BME280;58179;48.776;9.124;2023-12-20T06:45:20;97519.16;;;3.58;100.00
55914;BME280;58179;48.776;9.124;2023-12-20T06:47:46;97524.38;;;3.58;100.00
55914;BME280;58179;48.776;9.124;2023-12-20T06:50:12;97526.59;;;3.61;100.00
55914;BME280;58179;48.776;9.124;2023-12-20T06:52:38;97529.00;;;3.63;100.00
55914;BME280;58179;48.776;9.124;2023-12-20T06:55:07;97532.63;;;3.62;100.00
55914;BME280;58179;48.776;9.124;2023-12-20T06:57:33;97535.03;;;3.63;100.00
55914;BME280;58179;48.776;9.124;2023-12-20T06:59:59;97533.44;;;3.62;100.00
55914;BME280;58179;48.776;9.124;2023-12-20T07:02:25;97536.06;;;3.62;100.00
55914;BME280;58179;48.776;9.124;2023-12-20T07:04:55;97547.13;;;3.64;100.00
55914;BME280;58179;48.776;9.124;2023-12-20T07:07:21;97552.97;;;3.66;100.00
55914;BME280;58179;48.776;9.124;2023-12-20T07:09:49;97546.75;;;3.67;100.00
55914;BME280;58179;48.776;9.124;2023-12-20T07:12:16;97549.13;;;3.69;100.00
55914;BME280;58179;48.776;9.124;2023-12-20T07:14:44;97556.97;;;3.69;100.00
55914;BME280;58179;48.776;9.124;2023-12-20T07:17:10;97556.78;;;3.70;100.00
55914;BME280;58179;48.776;9.124;2023-12-20T07:19:39;97565.25;;;3.72;100.00
55914;BME280;58179;48.776;9.124;2023-12-20T07:22:06;97577.72;;;3.70;100.00
55914;BME280;58179;48.776;9.124;2023-12-20T07:24:33;97575.91;;;3.71;100.00
55914;BME280;58179;48.776;9.124;2023-12-20T07:27:00;97594.03;;;3.72;100.00
55914;BME280;58179;48.776;9.124;2023-12-20T07:29:27;97598.66;;;3.70;100.00
55914;BME280;58179;48.776;9.124;2023-12-20T07:31:53;97599.47;;;3.71;100.00
55914;BME280;58179;48.776;9.124;2023-12-20T07:34:20;97597.66;;;3.71;100.00
55914;BME280;58179;48.776;9.124;2023-12-20T07:36:46;97607.34;;;3.71;100.00
55914;BME280;58179;48.776;9.124;2023-12-20T07:39:13;97606.13;;;3.67;100.00
55914;BME280;58179;48.776;9.124;2023-12-20T07:41:39;97595.84;;;3.65;100.00
55914;BME280;58179;48.776;9.124;2023-12-20T07:44:06;97610.56;;;3.60;100.00
55914;BME280;58179;48.776;9.124;2023-12-20T07:46:34;97610.34;;;3.55;100.00
55914;BME280;58179;48.776;9.124;2023-12-20T07:49:00;97614.56;;;3.49;100.00
55914;BME280;58179;48.776;9.124;2023-12-20T07:51:26;97600.88;;;3.47;100.00
55914;BME280;58179;48.776;9.124;2023-12-20T07:53:52;97617.19;;;3.42;100.00
55914;BME280;58179;48.776;9.124;2023-12-20T07:56:19;97602.09;;;3.44;100.00
55914;BME280;58179;48.776;9.124;2023-12-20T07:58:46;97607.53;;;3.43;100.00
55914;BME280;58179;48.776;9.124;2023-12-20T08:01:15;97610.16;;;3.43;100.00
55914;BME280;58179;48.776;9.124;2023-12-20T08:03:43;97612.97;;;3.41;100.00
55914;BME280;58179;48.776;9.124;2023-12-20T08:06:09;97607.09;;;3.39;100.00
55914;BME280;58179;48.776;9.124;2023-12-20T08:08:35;97615.75;;;3.33;100.00
55914;BME280;58179;48.776;9.124;2023-12-20T08:11:01;97612.34;;;3.33;100.00
55914;BME280;58179;48.776;9.124;2023-12-20T08:13:28;97620.38;;;3.31;100.00
55914;BME280;58179;48.776;9.124;2023-12-20T08:15:54;97628.44;;;3.30;100.00
55914;BME280;58179;48.776;9.124;2023-12-20T08:18:22;97627.84;;;3.28;100.00
55914;BME280;58179;48.776;9.124;2023-12-20T08:20:50;97636.50;;;3.28;100.00
55914;BME280;58179;48.776;9.124;2023-12-20T08:23:18;97639.31;;;3.33;100.00
55914;BME280;58179;48.776;9.124;2023-12-20T08:25:46;97638.94;;;3.36;100.00
55914;BME280;58179;48.776;9.124;2023-12-20T08:28:12;97640.72;;;3.36;100.00
55914;BME280;58179;48.776;9.124;2023-12-20T08:30:38;97640.13;;;3.40;100.00
55914;BME280;58179;48.776;9.124;2023-12-20T08:33:06;97639.94;;;3.48;100.00
55914;BME280;58179;48.776;9.124;2023-12-20T08:35:36;97636.50;;;3.48;100.00
55914;BME280;58179;48.776;9.124;2023-12-20T08:38:04;97634.31;;;3.45;100.00
55914;BME280;58179;48.776;9.124;2023-12-20T08:40:30;97647.78;;;3.42;100.00
55914;BME280;58179;48.776;9.124;2023-12-20T08:42:56;97648.16;;;3.39;100.00
55914;BME280;58179;48.776;9.124;2023-12-20T08:45:22;97659.25;;;3.34;100.00
55914;BME280;58179;48.776;9.124;2023-12-20T08:47:49;97662.47;;;3.30;100.00
55914;BME280;58179;48.776;9.124;2023-12-20T08:50:15;97659.41;;;3.20;100.00
55914;BME280;58179;48.776;9.124;2023-12-20T08:52:41;97660.59;;;3.10;100.00
55914;BME280;58179;48.776;9.124;2023-12-20T08:55:09;97664.19;;;3.03;100.00
55914;BME280;58179;48.776;9.124;2023-12-20T08:57:36;97663.78;;;2.99;100.00
55914;BME280;58179;48.776;9.124;2023-12-20T09:00:03;97666.19;;;3.01;100.00
55914;BME280;58179;48.776;9.124;2023-12-20T09:02:29;97666.19;;;3.01;100.00
55914;BME280;58179;48.776;9.124;2023-12-20T09:04:55;97651.72;;;2.98;100.00
55914;BME280;58179;48.776;9.124;2023-12-20T09:07:22;97649.88;;;2.92;100.00
55914;BME280;58179;48.776;9.124;2023-12-20T09:09:49;97651.47;;;2.93;100.00
55914;BME280;58179;48.776;9.124;2023-12-20T09:12:18;97650.28;;;2.96;100.00
55914;BME280;58179;48.776;9.124;2023-12-20T09:14:45;97661.72;;;2.95;100.00
55914;BME280;58179;48.776;9.124;2023-12-20T09:17:11;97661.16;;;2.93;100.00
55914;BME280;58179;48.776;9.124;2023-12-20T09:19:38;97666.38;;;2.93;100.00
55914;BME280;58179;48.776;9.124;2023-12-20T09:22:04;97656.69;;;2.93;100.00
55914;BME280;58179;48.776;9.124;2023-12-20T09:24:31;97658.31;;;2.94;100.00
55914;BME280;58179;48.776;9.124;2023-12-20T09:26:57;97648.28;;;2.98;100.00
55914;BME280;58179;48.776;9.124;2023-12-20T09:29:25;97659.34;;;3.00;100.00
55914;BME280;58179;48.776;9.124;2023-12-20T09:31:51;97666.59;;;2.98;100.00
55914;BME280;58179;48.776;9.124;2023-12-20T09:34:17;97668.59;;;3.02;100.00
55914;BME280;58179;48.776;9.124;2023-12-20T09:36:43;97658.94;;;3.03;100.00
55914;BME280;58179;48.776;9.124;2023-12-20T09:39:13;97657.13;;;3.03;100.00
55914;BME280;58179;48.776;9.124;2023-12-20T09:41:44;97666.63;;;3.11;100.00
55914;BME280;58179;48.776;9.124;2023-12-20T09:44:14;97667.25;;;3.13;100.00
55914;BME280;58179;48.776;9.124;2023-12-20T09:46:44;97681.13;;;3.14;100.00
55914;BME280;58179;48.776;9.124;2023-12-20T09:49:11;97673.69;;;3.17;100.00
55914;BME280;58179;48.776;9.124;2023-12-20T09:51:37;97677.53;;;3.21;100.00
55914;BME280;58179;48.776;9.124;2023-12-20T09:54:04;97689.38;;;3.24;100.00
55914;BME280;58179;48.776;9.124;2023-12-20T09:56:30;97680.53;;;3.25;100.00
55914;BME280;58179;48.776;9.124;2023-12-20T09:58:57;97685.59;;;3.33;100.00
55914;BME280;58179;48.776;9.124;2023-12-20T10:01:24;97685.03;;;3.37;100.00
55914;BME280;58179;48.776;9.124;2023-12-20T10:03:54;97677.38;;;3.49;100.00
55914;BME280;58179;48.776;9.124;2023-12-20T10:06:21;97678.44;;;3.68;100.00
55914;BME280;58179;48.776;9.124;2023-12-20T10:08:47;97684.28;;;3.96;100.00
55914;BME280;58179;48.776;9.124;2023-12-20T10:11:14;97688.28;;;4.32;100.00
55914;BME280;58179;48.776;9.124;2023-12-20T10:13:40;97677.59;;;4.40;100.00
55914;BME280;58179;48.776;9.124;2023-12-20T10:16:07;97693.50;;;4.38;100.00
55914;BME280;58179;48.776;9.124;2023-12-20T10:18:33;97683.25;;;4.23;100.00
55914;BME280;58179;48.776;9.124;2023-12-20T10:21:01;97680.84;;;4.15;100.00
55914;BME280;58179;48.776;9.124;2023-12-20T10:23:27;97674.59;;;4.10;100.00
55914;BME280;58179;48.776;9.124;2023-12-20T10:25:57;97667.94;;;4.01;100.00
55914;BME280;58179;48.776;9.124;2023-12-20T10:28:24;97659.47;;;3.92;100.00
55914;BME280;58179;48.776;9.124;2023-12-20T10:30:54;97662.53;;;3.89;100.00
55914;BME280;58179;48.776;9.124;2023-12-20T10:33:25;97663.72;;;3.93;100.00
55914;BME280;58179;48.776;9.124;2023-12-20T10:38:29;97646.19;;;4.00;100.00
55914;BME280;58179;48.776;9.124;2023-12-20T10:43:33;97656.47;;;4.08;100.00
55914;BME280;58179;48.776;9.124;2023-12-20T10:45:59;97652.22;;;4.07;100.00
55914;BME280;58179;48.776;9.124;2023-12-20T10:48:27;97647.59;;;4.09;100.00
55914;BME280;58179;48.776;9.124;2023-12-20T10:50:56;97656.69;;;4.13;100.00
55914;BME280;58179;48.776;9.124;2023-12-20T10:53:24;97645.78;;;4.16;100.00
55914;BME280;58179;48.776;9.124;2023-12-20T10:55:54;97657.88;;;4.17;100.00
55914;BME280;58179;48.776;9.124;2023-12-20T10:58:22;97645.78;;;4.16;100.00
55914;BME280;58179;48.776;9.124;2023-12-20T11:00:51;97653.03;;;4.14;100.00
55914;BME280;58179;48.776;9.124;2023-12-20T11:03:25;97645.38;;;4.13;100.00
55914;BME280;58179;48.776;9.124;2023-12-20T11:05:55;97645.38;;;4.06;100.00
55914;BME280;58179;48.776;9.124;2023-12-20T11:08:31;97656.25;;;4.10;100.00
55914;BME280;58179;48.776;9.124;2023-12-20T11:11:05;97643.78;;;4.12;100.00
55914;BME280;58179;48.776;9.124;2023-12-20T11:13:36;97632.84;;;4.21;100.00
55914;BME280;58179;48.776;9.124;2023-12-20T11:16:03;97638.69;;;4.30;100.00
55914;BME280;58179;48.776;9.124;2023-12-20T11:18:30;97635.25;;;4.43;100.00
55914;BME280;58179;48.776;9.124;2023-12-20T11:21:04;97629.78;;;4.44;100.00
55914;BME280;58179;48.776;9.124;2023-12-20T11:23:31;97641.88;;;4.45;100.00
55914;BME280;58179;48.776;9.124;2023-12-20T11:26:02;97625.81;;;4.35;100.00
55914;BME280;58179;48.776;9.124;2023-12-20T11:28:29;97627.63;;;4.21;100.00
55914;BME280;58179;48.776;9.124;2023-12-20T11:30:59;97623.00;;;4.17;100.00
55914;BME280;58179;48.776;9.124;2023-12-20T11:33:29;97630.25;;;4.08;100.00
55914;BME280;58179;48.776;9.124;2023-12-20T11:35:56;97631.69;;;4.11;100.00
55914;BME280;58179;48.776;9.124;2023-12-20T11:38:24;97629.44;;;4.14;100.00
55914;BME280;58179;48.776;9.124;2023-12-20T11:40:50;97626.63;;;4.16;100.00
55914;BME280;58179;48.776;9.124;2023-12-20T11:43:31;97631.25;;;4.14;100.00
55914;BME280;58179;48.776;9.124;2023-12-20T11:46:03;97632.66;;;4.16;100.00
55914;BME280;58179;48.776;9.124;2023-12-20T11:48:31;97633.09;;;4.13;100.00
55914;BME280;58179;48.776;9.124;2023-12-20T11:50:58;97638.34;;;4.13;100.00
55914;BME280;58179;48.776;9.124;2023-12-20T11:53:24;97637.94;;;4.10;100.00
55914;BME280;58179;48.776;9.124;2023-12-20T11:55:50;97635.31;;;4.03;100.00
55914;BME280;58179;48.776;9.124;2023-12-20T11:58:17;97628.06;;;3.92;100.00
55914;BME280;58179;48.776;9.124;2023-12-20T12:00:44;97627.06;;;3.93;100.00
55914;BME280;58179;48.776;9.124;2023-12-20T12:03:14;97629.50;;;3.81;100.00
55914;BME280;58179;48.776;9.124;2023-12-20T12:05:40;97620.22;;;3.85;100.00
55914;BME280;58179;48.776;9.124;2023-12-20T12:08:07;97618.41;;;3.86;100.00
55914;BME280;58179;48.776;9.124;2023-12-20T12:10:33;97608.91;;;3.92;100.00
55914;BME280;58179;48.776;9.124;2023-12-20T12:12:59;97608.72;;;3.93;100.00
55914;BME280;58179;48.776;9.124;2023-12-20T12:15:26;97605.09;;;4.01;100.00
55914;BME280;58179;48.776;9.124;2023-12-20T12:17:57;97597.84;;;4.03;100.00
55914;BME280;58179;48.776;9.124;2023-12-20T12:20:23;97595.22;;;4.09;100.00
55914;BME280;58179;48.776;9.124;2023-12-20T12:22:58;97598.22;;;4.19;100.00
55914;BME280;58179;48.776;9.124;2023-12-20T12:25:25;97599.44;;;4.17;100.00
55914;BME280;58179;48.776;9.124;2023-12-20T12:27:51;97593.16;;;4.24;100.00
55914;BME280;58179;48.776;9.124;2023-12-20T12:30:18;97584.25;;;4.39;100.00
55914;BME280;58179;48.776;9.124;2023-12-20T12:32:44;97583.44;;;4.38;100.00
55914;BME280;58179;48.776;9.124;2023-12-20T12:35:12;97575.75;;;4.50;100.00
55914;BME280;58179;48.776;9.124;2023-12-20T12:37:39;97578.94;;;4.58;100.00
55914;BME280;58179;48.776;9.124;2023-12-20T12:40:06;97586.34;;;4.68;100.00
55914;BME280;58179;48.776;9.124;2023-12-20T12:42:33;97595.34;;;4.85;100.00
55914;BME280;58179;48.776;9.124;2023-12-20T12:44:59;97582.38;;;4.97;100.00
55914;BME280;58179;48.776;9.124;2023-12-20T12:47:25;97585.56;;;5.05;100.00
55914;BME280;58179;48.776;9.124;2023-12-20T12:49:52;97574.72;;;4.95;100.00
55914;BME280;58179;48.776;9.124;2023-12-20T12:52:22;97586.03;;;4.89;100.00
55914;BME280;58179;48.776;9.124;2023-12-20T12:54:49;97583.50;;;4.76;100.00
55914;BME280;58179;48.776;9.124;2023-12-20T12:57:15;97591.41;;;4.63;100.00
55914;BME280;58179;48.776;9.124;2023-12-20T12:59:43;97582.34;;;4.59;100.00
55914;BME280;58179;48.776;9.124;2023-12-20T13:02:11;97579.75;;;4.52;100.00
55914;BME280;58179;48.776;9.124;2023-12-20T13:04:37;97579.41;;;4.42;100.00